Time;durP1;ratioP1;P1;durP2;ratioP2;P2;SDS_P1;SDS_P2;PMS_P1;PMS_P2;Temp;Humidity;BMP_temperature;BMP_pressure;BME280_temperature;BME280_humidity;BME280_pressure;Samples;Min_cycle;Max_cycle;Signal;HPM_P1;HPM_P2
2022/12/31 00:01:32;;;;;;;5.85;2.35;;;;;;;;;;21174964;28;20056;-69
2022/12/31 00:11:34;;;;;;;7.22;2.95;;;;;;;;;;21171675;28;20043;-70
2022/12/31 00:21:36;;;;;;;8.02;2.58;;;;;;;;;;21170208;28;20066;-70
2022/12/31 00:31:38;;;;;;;6.20;3.03;;;;;;;;;;21169079;28;20051;-70
2022/12/31 00:41:42;;;;;;;9.13;2.83;;;;;;;;;;21167781;28;20051;-69
2022/12/31 00:51:45;;;;;;;6.20;2.88;;;;;;;;;;21165926;28;20125;-70
2022/12/31 01:01:48;;;;;;;5.88;2.70;;;;;;;;;;21167487;28;20064;-68
2022/12/31 01:11:51;;;;;;;9.18;2.40;;;;;;;;;;21167406;28;20079;-69
2022/12/31 01:21:55;;;;;;;5.95;2.70;;;;;;;;;;21167213;28;20483;-70
2022/12/31 01:31:57;;;;;;;7.68;2.80;;;;;;;;;;21165973;28;20103;-71
2022/12/31 01:41:59;;;;;;;6.85;2.58;;;;;;;;;;21164299;28;20134;-71
2022/12/31 01:52:01;;;;;;;8.35;3.35;;;;;;;;;;21164635;28;20518;-70
2022/12/31 02:02:03;;;;;;;6.63;2.85;;;;;;;;;;21185494;28;20051;-70
2022/12/31 02:12:06;;;;;;;5.82;2.88;;;;;;;;;;21201472;28;20044;-71
2022/12/31 02:22:19;;;;;;;8.10;3.20;;;;;;;;;;21163851;28;20043;-71
2022/12/31 02:32:31;;;;;;;9.27;3.05;;;;;;;;;;21163956;28;20123;-69
2022/12/31 02:42:34;;;;;;;10.70;3.57;;;;;;;;;;21162286;28;20070;-69
2022/12/31 02:52:37;;;;;;;6.30;3.05;;;;;;;;;;21162813;28;20396;-69
2022/12/31 03:02:41;;;;;;;9.52;3.13;;;;;;;;;;21161243;28;20056;-69
2022/12/31 03:12:45;;;;;;;4.95;2.60;;;;;;;;;;21172051;28;20479;-68
2022/12/31 03:22:48;;;;;;;4.47;2.20;;;;;;;;;;21175715;28;20043;-69
2022/12/31 03:32:52;;;;;;;4.72;2.40;;;;;;;;;;21175309;28;20104;-70
2022/12/31 03:42:55;;;;;;;7.00;2.30;;;;;;;;;;21174237;28;20112;-69
2022/12/31 03:52:59;;;;;;;5.03;2.40;;;;;;;;;;21174274;28;20052;-70
2022/12/31 04:03:03;;;;;;;4.40;2.28;;;;;;;;;;21185032;28;20052;-68
2022/12/31 04:13:07;;;;;;;6.63;2.83;;;;;;;;;;21175551;28;20048;-70
2022/12/31 04:23:11;;;;;;;5.13;2.40;;;;;;;;;;21172305;28;20055;-70
2022/12/31 04:33:32;;;;;;;5.85;2.20;;;;;;;;;;21172138;28;20109;-70
2022/12/31 04:43:55;;;;;;;7.07;2.90;;;;;;;;;;21170228;28;20055;-70
2022/12/31 04:54:01;;;;;;;7.25;2.70;;;;;;;;;;21168524;28;20522;-70
2022/12/31 05:04:05;;;;;;;5.25;2.63;;;;;;;;;;21167477;28;20071;-70
2022/12/31 05:14:07;;;;;;;7.13;3.20;;;;;;;;;;21167775;28;20082;-69
2022/12/31 05:24:10;;;;;;;4.80;2.13;;;;;;;;;;21168013;28;20054;-70
2022/12/31 05:34:12;;;;;;;6.93;2.65;;;;;;;;;;21219947;28;20046;-67
2022/12/31 05:44:16;;;;;;;6.53;2.30;;;;;;;;;;21175277;28;20052;-69
2022/12/31 05:54:18;;;;;;;7.20;2.63;;;;;;;;;;21165603;28;20534;-70
2022/12/31 06:04:20;;;;;;;8.18;2.50;;;;;;;;;;21165135;28;20062;-69
2022/12/31 06:14:22;;;;;;;4.47;2.65;;;;;;;;;;21164429;28;20411;-70
2022/12/31 06:24:25;;;;;;;6.53;2.95;;;;;;;;;;21163692;28;20506;-69
2022/12/31 06:34:27;;;;;;;7.32;3.00;;;;;;;;;;21164181;28;20122;-70
2022/12/31 06:44:29;;;;;;;6.32;2.95;;;;;;;;;;21166176;28;20074;-69
2022/12/31 06:54:31;;;;;;;5.93;3.05;;;;;;;;;;21176980;28;20044;-70
2022/12/31 07:04:45;;;;;;;7.40;2.65;;;;;;;;;;21176944;28;20449;-69
2022/12/31 07:15:06;;;;;;;9.15;2.97;;;;;;;;;;21176732;28;20052;-69
2022/12/31 07:25:12;;;;;;;9.93;3.17;;;;;;;;;;21175580;28;20488;-69
2022/12/31 07:35:14;;;;;;;5.90;2.78;;;;;;;;;;21174597;28;20093;-69
2022/12/31 07:45:20;;;;;;;4.95;3.13;;;;;;;;;;21173732;28;20483;-70
2022/12/31 07:55:21;;;;;;;4.45;2.80;;;;;;;;;;21172966;28;20058;-69
2022/12/31 08:05:26;;;;;;;6.07;2.90;;;;;;;;;;21171695;28;20136;-69
2022/12/31 08:15:28;;;;;;;7.65;3.80;;;;;;;;;;21172324;28;20051;-69
2022/12/31 08:25:50;;;;;;;9.07;3.65;;;;;;;;;;21171716;28;20422;-70
2022/12/31 08:36:15;;;;;;;9.25;3.63;;;;;;;;;;21169952;28;20051;-70
2022/12/31 08:46:20;;;;;;;9.18;3.30;;;;;;;;;;21168887;28;20044;-70
2022/12/31 08:56:26;;;;;;;6.10;3.53;;;;;;;;;;21168471;28;20333;-69
2022/12/31 09:06:35;;;;;;;12.68;4.07;;;;;;;;;;21166544;28;20134;-70
2022/12/31 09:16:43;;;;;;;12.93;4.57;;;;;;;;;;21167093;28;20444;-69
2022/12/31 09:26:48;;;;;;;8.90;4.50;;;;;;;;;;21165166;28;20047;-70
2022/12/31 09:36:51;;;;;;;7.60;4.45;;;;;;;;;;21166220;28;20070;-71
2022/12/31 09:47:12;;;;;;;10.00;4.45;;;;;;;;;;21164165;28;20053;-70
2022/12/31 09:57:29;;;;;;;13.00;5.35;;;;;;;;;;21156830;28;20139;-68
2022/12/31 10:08:02;;;;;;;9.33;5.27;;;;;;;;;;21163892;28;20410;-70
2022/12/31 10:18:10;;;;;;;12.15;5.82;;;;;;;;;;20990975;28;20048;-66
2022/12/31 10:28:30;;;;;;;14.43;6.05;;;;;;;;;;21002283;28;20058;-69
2022/12/31 10:38:32;;;;;;;9.23;3.88;;;;;;;;;;21001412;28;20131;-68
2022/12/31 10:48:54;;;;;;;9.15;4.07;;;;;;;;;;21053477;28;20154;-68
2022/12/31 10:59:05;;;;;;;6.93;3.90;;;;;;;;;;21176804;28;20048;-68
2022/12/31 11:09:17;;;;;;;7.60;4.10;;;;;;;;;;21176364;28;20047;-66
2022/12/31 11:19:24;;;;;;;9.07;3.47;;;;;;;;;;21249145;27;20082;-68
2022/12/31 11:29:26;;;;;;;5.03;2.10;;;;;;;;;;21346113;27;20047;-62
2022/12/31 11:39:47;;;;;;;10.43;3.72;;;;;;;;;;21323958;27;20047;-64
2022/12/31 11:49:49;;;;;;;9.73;3.47;;;;;;;;;;21240415;27;20043;-68
2022/12/31 11:59:54;;;;;;;11.18;3.83;;;;;;;;;;21257864;27;20055;-72
2022/12/31 12:09:57;;;;;;;10.05;3.97;;;;;;;;;;21256524;27;20551;-65
2022/12/31 12:20:16;;;;;;;18.70;4.05;;;;;;;;;;21255342;27;20150;-65
2022/12/31 12:30:20;;;;;;;12.97;3.80;;;;;;;;;;21254704;27;20051;-69
2022/12/31 12:40:23;;;;;;;16.60;4.95;;;;;;;;;;21254748;27;20054;-68
2022/12/31 12:50:32;;;;;;;12.13;4.13;;;;;;;;;;21252417;27;20070;-63
2022/12/31 13:00:50;;;;;;;13.97;5.07;;;;;;;;;;21251985;27;20095;-62
2022/12/31 13:11:02;;;;;;;10.65;4.25;;;;;;;;;;21252671;27;20047;-62
2022/12/31 13:21:10;;;;;;;9.02;4.15;;;;;;;;;;21250642;27;20043;-68
2022/12/31 13:31:15;;;;;;;12.77;4.10;;;;;;;;;;21251971;27;20082;-75
2022/12/31 13:41:34;;;;;;;12.30;3.70;;;;;;;;;;21250040;27;20104;-62
2022/12/31 13:51:42;;;;;;;11.27;3.40;;;;;;;;;;21248616;27;20091;-62
2022/12/31 14:01:46;;;;;;;18.90;4.50;;;;;;;;;;21248715;27;20058;-63
2022/12/31 14:12:00;;;;;;;17.95;3.80;;;;;;;;;;21247965;28;20138;-62
2022/12/31 14:22:11;;;;;;;9.82;3.13;;;;;;;;;;21248175;28;20107;-62
2022/12/31 14:32:20;;;;;;;7.13;2.88;;;;;;;;;;21246960;28;20422;-62
2022/12/31 14:42:28;;;;;;;13.07;3.30;;;;;;;;;;21246429;28;20043;-63
2022/12/31 14:52:32;;;;;;;15.63;4.85;;;;;;;;;;21246697;28;20468;-61
2022/12/31 15:02:34;;;;;;;15.95;2.92;;;;;;;;;;21246825;27;20495;-62
2022/12/31 15:12:46;;;;;;;12.35;3.00;;;;;;;;;;21261462;27;20098;-63
2022/12/31 15:22:49;;;;;;;15.85;3.88;;;;;;;;;;21261075;27;20047;-63
2022/12/31 15:32:51;;;;;;;10.43;3.25;;;;;;;;;;21260182;27;20086;-61
2022/12/31 15:43:07;;;;;;;7.47;2.63;;;;;;;;;;21260083;27;20051;-62
2022/12/31 15:53:15;;;;;;;16.33;2.65;;;;;;;;;;21258598;27;20538;-62
2022/12/31 16:03:24;;;;;;;11.75;3.33;;;;;;;;;;21239323;27;20051;-63
2022/12/31 16:13:27;;;;;;;18.05;4.97;;;;;;;;;;21255610;27;20096;-64
2022/12/31 16:23:29;;;;;;;28.23;7.53;;;;;;;;;;21258096;27;20051;-66
2022/12/31 16:33:32;;;;;;;19.15;5.53;;;;;;;;;;21255358;27;20046;-63
2022/12/31 16:43:42;;;;;;;19.58;4.80;;;;;;;;;;21255082;27;20564;-63
2022/12/31 16:53:44;;;;;;;13.55;4.15;;;;;;;;;;21253700;27;20051;-65
2022/12/31 17:03:50;;;;;;;16.63;5.05;;;;;;;;;;21252981;27;20097;-63
2022/12/31 17:13:57;;;;;;;18.08;5.05;;;;;;;;;;21256517;27;20047;-64
2022/12/31 17:24:02;;;;;;;16.77;5.07;;;;;;;;;;21251719;27;20051;-63
2022/12/31 17:34:24;;;;;;;20.38;7.30;;;;;;;;;;21249279;27;20410;-63
2022/12/31 17:44:27;;;;;;;15.82;4.70;;;;;;;;;;21248467;27;20051;-64
2022/12/31 17:54:29;;;;;;;18.60;6.68;;;;;;;;;;21248102;27;20135;-64
2022/12/31 18:04:31;;;;;;;10.23;4.72;;;;;;;;;;21247191;27;20047;-63
2022/12/31 18:14:34;;;;;;;24.90;7.38;;;;;;;;;;21247313;28;20043;-63
2022/12/31 18:24:36;;;;;;;16.95;4.95;;;;;;;;;;21247305;28;20051;-62
2022/12/31 18:34:39;;;;;;;27.88;6.15;;;;;;;;;;21247866;28;20043;-63
2022/12/31 18:44:41;;;;;;;18.73;8.70;;;;;;;;;;21260615;27;20048;-63
2022/12/31 18:54:43;;;;;;;22.27;6.70;;;;;;;;;;21264127;27;20074;-64
2022/12/31 19:04:46;;;;;;;18.05;5.35;;;;;;;;;;21260952;27;20134;-63
2022/12/31 19:14:48;;;;;;;17.20;4.68;;;;;;;;;;21261968;27;20039;-63
2022/12/31 19:24:50;;;;;;;15.50;4.10;;;;;;;;;;21260734;27;20047;-62
2022/12/31 19:34:52;;;;;;;12.63;4.50;;;;;;;;;;21261291;27;20467;-63
2022/12/31 19:44:54;;;;;;;27.52;12.68;;;;;;;;;;21259351;27;20142;-63
2022/12/31 19:54:56;;;;;;;19.23;6.78;;;;;;;;;;21259262;27;20091;-64
2022/12/31 20:04:58;;;;;;;20.27;7.22;;;;;;;;;;21258324;27;20510;-63
2022/12/31 20:15:00;;;;;;;22.08;5.70;;;;;;;;;;21257323;27;20046;-64
2022/12/31 20:25:02;;;;;;;16.83;5.63;;;;;;;;;;21255953;27;20044;-64
2022/12/31 20:35:04;;;;;;;15.07;6.97;;;;;;;;;;21255681;27;20046;-63
2022/12/31 20:45:08;;;;;;;13.88;5.65;;;;;;;;;;21255431;27;20064;-63
2022/12/31 20:55:15;;;;;;;18.00;5.90;;;;;;;;;;21253605;27;20039;-62
2022/12/31 21:05:17;;;;;;;24.48;6.43;;;;;;;;;;21234174;27;20062;-63
2022/12/31 21:15:20;;;;;;;13.88;4.95;;;;;;;;;;21252478;27;20086;-63
2022/12/31 21:25:22;;;;;;;22.05;8.50;;;;;;;;;;21251360;27;20047;-62
2022/12/31 21:35:24;;;;;;;19.92;7.65;;;;;;;;;;21249962;27;20418;-63
2022/12/31 21:45:26;;;;;;;24.55;8.60;;;;;;;;;;21249640;27;20043;-62
2022/12/31 22:05:51;;;;;;;17.20;7.93;;;;;;;;;;21248292;27;20051;-63
2022/12/31 22:15:54;;;;;;;25.50;8.20;;;;;;;;;;21257058;27;20043;-63
2022/12/31 22:25:55;;;;;;;23.02;8.65;;;;;;;;;;21266506;27;20513;-64
2022/12/31 22:35:57;;;;;;;19.75;8.43;;;;;;;;;;21265387;27;20069;-63
2022/12/31 22:46:05;;;;;;;16.75;7.35;;;;;;;;;;21264702;27;20411;-64
2022/12/31 22:56:08;;;;;;;21.88;6.50;;;;;;;;;;21263809;27;20047;-62
2022/12/31 23:06:10;;;;;;;13.98;5.82;;;;;;;;;;21262955;27;20047;-63
2022/12/31 23:26:34;;;;;;;40.60;18.95;;;;;;;;;;21259070;27;20055;-63
2022/12/31 23:36:36;;;;;;;38.50;16.27;;;;;;;;;;21260658;27;20372;-63
2022/12/31 23:46:41;;;;;;;48.60;19.25;;;;;;;;;;21259966;27;20428;-62
2022/12/31 23:56:44;;;;;;;25.15;11.77;;;;;;;;;;21258050;27;20521;-63
